Time;durP1;ratioP1;P1;durP2;ratioP2;P2;SDS_P1;SDS_P2;PMS_P1;PMS_P2;Temp;Humidity;BMP_temperature;BMP_pressure;BME280_temperature;BME280_humidity;BME280_pressure;Samples;Min_cycle;Max_cycle;Signal;HPM_P1;HPM_P2
2024/01/28 00:01:40;;;;;;;0.15;0.15;;;0.20;99.90;;;;;;5122579;27;20032;-68
2024/01/28 00:04:06;;;;;;;0.15;0.15;;;0.20;99.90;;;;;;5081739;28;20448;-67
2024/01/28 00:06:32;;;;;;;0.10;0.10;;;0.20;99.90;;;;;;5089172;27;20088;-67
2024/01/28 00:08:57;;;;;;;0.10;0.10;;;0.20;99.90;;;;;;5091236;27;20032;-67
2024/01/28 00:11:23;;;;;;;0.17;0.17;;;0.20;99.90;;;;;;5112176;27;20107;-68
2024/01/28 00:13:48;;;;;;;0.10;0.10;;;0.20;99.90;;;;;;5111057;27;20180;-67
2024/01/28 00:16:15;;;;;;;0.10;0.10;;;0.20;99.90;;;;;;5101588;27;20471;-67
2024/01/28 00:18:40;;;;;;;0.22;0.22;;;0.20;99.90;;;;;;5099277;27;20676;-68
2024/01/28 00:21:06;;;;;;;0.57;0.57;;;0.20;99.90;;;;;;5107974;27;20047;-67
2024/01/28 00:23:31;;;;;;;0.10;0.10;;;0.20;99.90;;;;;;5098079;28;20043;-68
2024/01/28 00:25:57;;;;;;;0.10;0.10;;;0.30;99.90;;;;;;5101930;27;20038;-67
2024/01/28 00:28:23;;;;;;;0.10;0.10;;;0.30;99.90;;;;;;5115496;27;20498;-67
2024/01/28 00:30:48;;;;;;;0.45;0.35;;;0.30;99.90;;;;;;5111250;27;20501;-68
2024/01/28 00:33:14;;;;;;;0.10;0.10;;;0.30;99.90;;;;;;5109638;27;20035;-68
2024/01/28 00:35:40;;;;;;;0.20;0.20;;;0.30;99.90;;;;;;5095460;27;20043;-68
2024/01/28 00:38:05;;;;;;;0.10;0.10;;;0.30;99.90;;;;;;5080650;27;20035;-68
2024/01/28 00:40:31;;;;;;;1.25;0.47;;;0.30;99.90;;;;;;5096948;27;20035;-68
2024/01/28 00:42:57;;;;;;;0.10;0.10;;;0.30;99.90;;;;;;5112501;27;20031;-68
2024/01/28 00:45:23;;;;;;;0.45;0.45;;;0.30;99.90;;;;;;5092234;27;20101;-68
2024/01/28 00:47:48;;;;;;;0.10;0.10;;;0.40;99.90;;;;;;5122270;27;20027;-68
2024/01/28 00:50:14;;;;;;;0.50;0.50;;;0.40;99.90;;;;;;5088196;28;20838;-68
2024/01/28 00:52:39;;;;;;;0.40;0.40;;;0.40;99.90;;;;;;5106724;27;20512;-68
2024/01/28 00:55:06;;;;;;;2.13;0.80;;;0.40;99.90;;;;;;5095660;27;20400;-68
2024/01/28 00:57:31;;;;;;;0.10;0.10;;;0.30;99.90;;;;;;5120883;27;20043;-68
2024/01/28 00:59:58;;;;;;;0.63;0.55;;;0.30;99.90;;;;;;5108277;27;20539;-68
2024/01/28 01:02:23;;;;;;;0.22;0.22;;;0.30;99.90;;;;;;5082074;28;20069;-68
2024/01/28 01:04:49;;;;;;;0.10;0.10;;;0.30;99.90;;;;;;5107999;27;20028;-68
2024/01/28 01:07:14;;;;;;;0.10;0.10;;;0.40;99.90;;;;;;5083265;28;20040;-68
2024/01/28 01:09:41;;;;;;;0.10;0.10;;;0.30;99.90;;;;;;5094936;27;20058;-68
2024/01/28 01:12:06;;;;;;;0.20;0.20;;;0.40;99.90;;;;;;5114299;27;20070;-67
2024/01/28 01:14:35;;;;;;;1.10;1.00;;;0.40;99.90;;;;;;5108190;27;20533;-68
2024/01/28 01:17:02;;;;;;;0.20;0.20;;;0.30;99.90;;;;;;5090213;28;20244;-68
2024/01/28 01:19:27;;;;;;;0.10;0.10;;;0.40;99.90;;;;;;5108243;27;20397;-68
2024/01/28 01:21:53;;;;;;;0.10;0.10;;;0.30;99.90;;;;;;5117242;27;20057;-68
2024/01/28 01:24:18;;;;;;;0.10;0.10;;;0.30;99.90;;;;;;5094702;27;20090;-68
2024/01/28 01:26:44;;;;;;;0.57;0.47;;;0.30;99.90;;;;;;5090458;28;20035;-68
2024/01/28 01:29:10;;;;;;;0.32;0.32;;;0.30;99.90;;;;;;5091612;28;20095;-68
2024/01/28 01:31:35;;;;;;;0.45;0.45;;;0.30;99.90;;;;;;5108097;27;20046;-68
2024/01/28 01:34:02;;;;;;;5.57;0.73;;;0.30;99.90;;;;;;5112809;27;20032;-68
2024/01/28 01:36:28;;;;;;;0.32;0.20;;;0.30;99.90;;;;;;5092523;28;20043;-67
2024/01/28 01:38:53;;;;;;;0.28;0.28;;;0.30;99.90;;;;;;5086784;28;20382;-68
2024/01/28 01:41:19;;;;;;;0.10;0.10;;;0.30;99.90;;;;;;5100511;27;20423;-68
2024/01/28 01:43:45;;;;;;;0.20;0.20;;;0.30;99.90;;;;;;5118948;27;20592;-68
2024/01/28 01:46:11;;;;;;;0.20;0.20;;;0.20;99.90;;;;;;5111558;27;20509;-68
2024/01/28 01:48:37;;;;;;;0.30;0.22;;;0.20;99.90;;;;;;5090586;27;20039;-68
2024/01/28 01:51:06;;;;;;;0.10;0.10;;;0.20;99.90;;;;;;5092431;27;20046;-68
2024/01/28 01:53:33;;;;;;;0.30;0.30;;;0.20;99.90;;;;;;5109817;27;20537;-68
2024/01/28 01:55:59;;;;;;;0.30;0.30;;;0.20;99.90;;;;;;5115409;27;20063;-68
2024/01/28 01:58:24;;;;;;;0.15;0.15;;;0.20;99.90;;;;;;5108864;27;20075;-68
2024/01/28 02:00:50;;;;;;;0.20;0.20;;;0.20;99.90;;;;;;5104840;27;20043;-68
2024/01/28 02:03:15;;;;;;;0.13;0.10;;;0.20;99.90;;;;;;5123502;27;20292;-68
2024/01/28 02:05:41;;;;;;;0.28;0.28;;;0.20;99.90;;;;;;5103614;28;20080;-68
2024/01/28 02:08:07;;;;;;;0.10;0.10;;;0.20;99.90;;;;;;5110643;27;20482;-67
2024/01/28 02:10:32;;;;;;;0.20;0.20;;;0.30;99.90;;;;;;5089194;28;20042;-68
2024/01/28 02:12:58;;;;;;;0.30;0.30;;;0.30;99.90;;;;;;5095608;28;20188;-67
2024/01/28 02:15:23;;;;;;;0.10;0.10;;;0.30;99.90;;;;;;5106234;28;20046;-67
2024/01/28 02:17:49;;;;;;;0.32;0.32;;;0.30;99.90;;;;;;5089500;28;20122;-67
2024/01/28 02:20:16;;;;;;;0.20;0.20;;;0.30;99.90;;;;;;5108532;27;20039;-67
2024/01/28 02:22:42;;;;;;;0.10;0.10;;;0.30;99.90;;;;;;5110840;27;20113;-67
2024/01/28 02:25:07;;;;;;;0.10;0.10;;;0.30;99.90;;;;;;5091849;28;20500;-68
2024/01/28 02:27:35;;;;;;;0.13;0.13;;;0.30;99.90;;;;;;5089405;28;20042;-67
2024/01/28 02:30:01;;;;;;;0.20;0.20;;;0.40;99.90;;;;;;5090907;28;20054;-67
2024/01/28 02:32:26;;;;;;;3.03;1.02;;;0.30;99.90;;;;;;5115929;28;20031;-67
2024/01/28 02:34:52;;;;;;;0.17;0.17;;;0.40;99.90;;;;;;5108382;28;20028;-67
2024/01/28 02:37:17;;;;;;;0.63;0.17;;;0.40;99.90;;;;;;5118596;28;20050;-68
2024/01/28 02:39:43;;;;;;;1.02;0.60;;;0.50;99.90;;;;;;5106754;28;20128;-68
2024/01/28 02:42:08;;;;;;;1.35;0.40;;;0.50;99.90;;;;;;5095239;28;20280;-68
2024/01/28 02:44:34;;;;;;;0.10;0.10;;;0.40;99.90;;;;;;5089671;28;20052;-67
2024/01/28 02:47:02;;;;;;;0.20;0.20;;;0.50;99.90;;;;;;5108997;28;20066;-67
2024/01/28 02:49:28;;;;;;;0.82;0.75;;;0.50;99.90;;;;;;5086526;28;20074;-68
2024/01/28 02:51:54;;;;;;;0.90;0.40;;;0.40;99.90;;;;;;5096843;28;20039;-67
2024/01/28 02:54:22;;;;;;;0.10;0.10;;;0.50;99.90;;;;;;5094167;28;20112;-68
2024/01/28 02:56:48;;;;;;;0.20;0.20;;;0.40;99.90;;;;;;5122406;28;20039;-68
2024/01/28 02:59:14;;;;;;;0.30;0.30;;;0.40;99.90;;;;;;5096436;28;20050;-68
2024/01/28 03:01:49;;;;;;;0.65;0.65;;;0.40;99.90;;;;;;5092127;28;20048;-68
2024/01/28 03:04:15;;;;;;;0.40;0.40;;;0.40;99.90;;;;;;5097218;28;20036;-68
2024/01/28 03:06:41;;;;;;;0.32;0.30;;;0.50;99.90;;;;;;5111941;28;20032;-68
2024/01/28 03:09:08;;;;;;;0.80;0.80;;;0.40;99.90;;;;;;5095927;28;20402;-68
2024/01/28 03:11:35;;;;;;;0.20;0.20;;;0.40;99.90;;;;;;5086553;28;20092;-68
2024/01/28 03:14:01;;;;;;;0.30;0.30;;;0.40;99.90;;;;;;5113968;28;20048;-68
2024/01/28 03:16:26;;;;;;;0.10;0.10;;;0.40;99.90;;;;;;5092863;28;20034;-68
2024/01/28 03:18:52;;;;;;;0.15;0.15;;;0.40;99.90;;;;;;5114216;28;20546;-68
2024/01/28 03:21:18;;;;;;;0.20;0.20;;;0.40;99.90;;;;;;5110390;28;20032;-67
2024/01/28 03:23:43;;;;;;;0.10;0.10;;;0.40;99.90;;;;;;5114920;28;20506;-67
2024/01/28 03:26:12;;;;;;;0.35;0.35;;;0.40;99.90;;;;;;5090767;28;20066;-67
2024/01/28 03:28:38;;;;;;;0.10;0.10;;;0.40;99.90;;;;;;5095279;28;20122;-67
2024/01/28 03:31:03;;;;;;;0.28;0.28;;;0.40;99.90;;;;;;5100740;28;20123;-67
2024/01/28 03:33:30;;;;;;;0.20;0.20;;;0.40;99.90;;;;;;5102117;28;20047;-67
2024/01/28 03:35:56;;;;;;;0.10;0.10;;;0.40;99.90;;;;;;5120004;28;20035;-67
2024/01/28 03:38:22;;;;;;;0.20;0.20;;;0.40;99.90;;;;;;5090654;27;20879;-67
2024/01/28 03:40:47;;;;;;;0.20;0.20;;;0.40;99.90;;;;;;5100202;28;20054;-68
2024/01/28 03:43:13;;;;;;;0.75;0.75;;;0.40;99.90;;;;;;5109378;27;20046;-67
2024/01/28 03:45:39;;;;;;;0.45;0.45;;;0.30;99.90;;;;;;5090538;27;20367;-67
2024/01/28 03:48:05;;;;;;;0.10;0.10;;;0.30;99.90;;;;;;5097323;27;20524;-67
2024/01/28 03:50:30;;;;;;;0.10;0.10;;;0.30;99.90;;;;;;5109236;27;20075;-67
2024/01/28 03:52:57;;;;;;;0.20;0.20;;;0.30;99.90;;;;;;5097119;27;20082;-67
2024/01/28 03:55:23;;;;;;;0.32;0.32;;;0.20;99.90;;;;;;5091038;27;20053;-67
2024/01/28 03:57:48;;;;;;;0.10;0.10;;;0.20;99.90;;;;;;5124136;27;20122;-67
2024/01/28 04:00:15;;;;;;;0.13;0.13;;;0.20;99.90;;;;;;5092631;27;20046;-67
2024/01/28 04:02:41;;;;;;;0.20;0.20;;;0.20;99.90;;;;;;5093311;28;20040;-67
2024/01/28 04:05:07;;;;;;;0.10;0.10;;;0.20;99.90;;;;;;5097733;27;20046;-67
2024/01/28 04:07:33;;;;;;;0.10;0.10;;;0.10;99.90;;;;;;5121690;27;20027;-67
2024/01/28 04:09:58;;;;;;;0.45;0.30;;;0.10;99.90;;;;;;5105237;27;20050;-68
2024/01/28 04:12:24;;;;;;;0.10;0.10;;;0.10;99.90;;;;;;5090844;27;20073;-68
2024/01/28 04:14:49;;;;;;;0.32;0.32;;;0.00;99.90;;;;;;5096681;27;20046;-68
2024/01/28 04:17:16;;;;;;;3.53;0.30;;;0.00;99.90;;;;;;5117784;27;20031;-68
2024/01/28 04:19:41;;;;;;;0.63;0.55;;;0.00;99.90;;;;;;5102012;27;20035;-68
2024/01/28 04:22:09;;;;;;;1.10;0.30;;;0.00;99.90;;;;;;5117816;27;20034;-68
2024/01/28 04:24:35;;;;;;;0.30;0.30;;;-0.10;99.90;;;;;;5124736;27;20040;-68
2024/01/28 04:27:00;;;;;;;0.15;0.15;;;-0.10;99.90;;;;;;5093806;27;20031;-68
2024/01/28 04:29:26;;;;;;;0.17;0.17;;;-0.10;99.90;;;;;;5094716;27;20114;-68
2024/01/28 04:31:56;;;;;;;0.10;0.10;;;-0.20;99.90;;;;;;5094952;27;20054;-68
2024/01/28 04:34:22;;;;;;;0.65;0.52;;;-0.20;99.90;;;;;;5092787;28;20047;-68
2024/01/28 04:36:48;;;;;;;0.15;0.15;;;-0.20;99.90;;;;;;5089212;28;20055;-68
2024/01/28 04:39:14;;;;;;;0.10;0.10;;;-0.20;99.90;;;;;;5115206;27;20047;-68
2024/01/28 04:41:39;;;;;;;0.10;0.10;;;-0.30;99.90;;;;;;5097199;27;20126;-68
2024/01/28 04:44:05;;;;;;;0.10;0.10;;;-0.30;99.90;;;;;;5099431;27;20377;-68
2024/01/28 04:46:31;;;;;;;0.08;0.08;;;-0.30;99.90;;;;;;5111484;27;20035;-68
2024/01/28 04:48:57;;;;;;;0.17;0.17;;;-0.30;99.90;;;;;;5095007;27;20047;-68
2024/01/28 04:51:22;;;;;;;0.20;0.20;;;-0.30;99.90;;;;;;5099736;28;20037;-68
2024/01/28 04:53:48;;;;;;;0.55;0.55;;;-0.40;99.90;;;;;;5087852;27;20043;-68
2024/01/28 04:56:13;;;;;;;0.10;0.10;;;-0.40;99.90;;;;;;5111681;27;20462;-68
2024/01/28 04:58:39;;;;;;;0.10;0.10;;;-0.40;99.90;;;;;;5090238;28;20043;-68
2024/01/28 05:01:05;;;;;;;0.28;0.28;;;-0.40;99.90;;;;;;5096418;28;20061;-68
2024/01/28 05:03:31;;;;;;;0.10;0.10;;;-0.40;99.90;;;;;;5109834;27;20136;-67
2024/01/28 05:05:57;;;;;;;1.00;0.20;;;-0.40;99.90;;;;;;5094095;27;20463;-67
2024/01/28 05:08:23;;;;;;;0.10;0.10;;;-0.40;99.90;;;;;;5090258;27;20178;-67
2024/01/28 05:10:48;;;;;;;0.10;0.10;;;-0.40;99.90;;;;;;5102128;28;20044;-68
2024/01/28 05:13:14;;;;;;;0.10;0.10;;;-0.50;99.90;;;;;;5122429;27;20070;-68
2024/01/28 05:15:40;;;;;;;0.43;0.40;;;-0.50;99.90;;;;;;5112816;27;20441;-68
2024/01/28 05:18:06;;;;;;;0.25;0.25;;;-0.50;99.90;;;;;;5111276;27;20114;-67
2024/01/28 05:20:32;;;;;;;0.52;0.52;;;-0.50;99.90;;;;;;5090847;28;20043;-67
2024/01/28 05:22:59;;;;;;;0.10;0.10;;;-0.50;99.90;;;;;;5114111;27;20065;-68
2024/01/28 05:25:26;;;;;;;0.00;0.00;;;-0.50;99.90;;;;;;5108335;28;20085;-68
2024/01/28 05:27:52;;;;;;;0.63;0.38;;;-0.50;99.90;;;;;;5091947;28;20047;-68
2024/01/28 05:30:17;;;;;;;0.75;0.28;;;-0.50;99.90;;;;;;5109651;27;20384;-68
2024/01/28 05:32:43;;;;;;;0.35;0.22;;;-0.60;99.90;;;;;;5090876;28;20051;-68
2024/01/28 05:35:09;;;;;;;1.85;0.50;;;-0.50;99.90;;;;;;5109932;27;20035;-68
2024/01/28 05:37:36;;;;;;;1.20;0.60;;;-0.60;99.90;;;;;;5088325;27;20054;-68
2024/01/28 05:40:02;;;;;;;0.15;0.15;;;-0.50;99.90;;;;;;5091452;27;20445;-68
2024/01/28 05:42:28;;;;;;;0.20;0.20;;;-0.60;99.90;;;;;;5114504;27;20046;-68
2024/01/28 05:44:53;;;;;;;0.30;0.30;;;-0.60;99.90;;;;;;5099442;27;20637;-68
2024/01/28 05:47:19;;;;;;;0.10;0.10;;;-0.60;99.90;;;;;;5100861;27;20043;-68
2024/01/28 05:49:44;;;;;;;0.30;0.30;;;-0.60;99.90;;;;;;5094278;28;20043;-68
2024/01/28 05:52:10;;;;;;;0.65;0.43;;;-0.60;99.90;;;;;;5103989;27;20047;-67
2024/01/28 05:54:41;;;;;;;0.10;0.10;;;-0.60;99.90;;;;;;5090582;28;20035;-67
2024/01/28 05:57:07;;;;;;;0.40;0.40;;;-0.70;99.90;;;;;;5098867;27;20070;-68
2024/01/28 05:59:33;;;;;;;0.30;0.30;;;-0.70;99.90;;;;;;5109667;28;20043;-67
2024/01/28 06:01:58;;;;;;;5.05;0.85;;;-0.70;99.90;;;;;;5095179;28;20394;-68
2024/01/28 06:04:24;;;;;;;0.30;0.30;;;-0.70;99.90;;;;;;5089538;28;20035;-68
2024/01/28 06:06:49;;;;;;;0.08;0.08;;;-0.70;99.90;;;;;;5106726;28;20043;-68
2024/01/28 06:09:15;;;;;;;0.75;0.28;;;-0.80;99.90;;;;;;5111255;27;20172;-67
2024/01/28 06:11:43;;;;;;;0.10;0.10;;;-0.80;99.90;;;;;;5080968;28;20061;-67
2024/01/28 06:14:09;;;;;;;0.30;0.30;;;-0.80;99.90;;;;;;5091690;28;20043;-67
2024/01/28 06:16:35;;;;;;;0.20;0.20;;;-0.80;99.90;;;;;;5097040;28;20039;-67
2024/01/28 06:19:00;;;;;;;0.10;0.10;;;-0.80;99.90;;;;;;5095669;27;20039;-67
2024/01/28 06:21:26;;;;;;;0.20;0.20;;;-0.80;99.90;;;;;;5105101;27;20035;-67
2024/01/28 06:23:51;;;;;;;0.32;0.20;;;-0.80;99.90;;;;;;5083521;28;20042;-68
2024/01/28 06:26:18;;;;;;;0.17;0.17;;;-0.80;99.90;;;;;;5113633;27;20118;-68
2024/01/28 06:28:45;;;;;;;0.45;0.45;;;-0.80;99.90;;;;;;5092006;28;20401;-67
2024/01/28 06:31:12;;;;;;;0.70;0.70;;;-0.80;99.90;;;;;;5089652;28;20039;-67
2024/01/28 06:33:38;;;;;;;0.20;0.20;;;-0.90;99.90;;;;;;5090430;28;20036;-67
2024/01/28 06:36:04;;;;;;;0.30;0.30;;;-0.80;99.90;;;;;;5113085;28;20039;-68
2024/01/28 06:38:30;;;;;;;0.00;0.00;;;-0.90;99.90;;;;;;5098105;28;20043;-68
2024/01/28 06:40:57;;;;;;;0.55;0.55;;;-0.80;99.90;;;;;;5105189;28;20105;-68
2024/01/28 06:43:25;;;;;;;0.15;0.15;;;-0.80;99.90;;;;;;5092047;28;20045;-68
2024/01/28 06:45:51;;;;;;;0.10;0.10;;;-0.90;99.90;;;;;;5092346;28;20161;-68
2024/01/28 06:48:17;;;;;;;0.00;0.00;;;-0.90;99.90;;;;;;5088115;28;20045;-68
2024/01/28 06:50:43;;;;;;;0.25;0.25;;;-0.90;99.90;;;;;;5123127;28;20388;-68
2024/01/28 06:53:09;;;;;;;0.75;0.47;;;-0.90;99.90;;;;;;5095784;28;20134;-68
2024/01/28 06:55:35;;;;;;;0.17;0.17;;;-0.90;99.90;;;;;;5114662;28;20118;-68
2024/01/28 06:58:00;;;;;;;0.10;0.10;;;-0.90;99.90;;;;;;5099269;28;20493;-68
2024/01/28 07:00:26;;;;;;;0.20;0.20;;;-0.90;99.90;;;;;;5099568;28;20028;-68
2024/01/28 07:02:53;;;;;;;0.30;0.30;;;-1.00;99.90;;;;;;5123004;28;20067;-68
2024/01/28 07:05:20;;;;;;;0.45;0.45;;;-1.00;99.90;;;;;;5096403;28;20039;-68
2024/01/28 07:07:46;;;;;;;0.95;0.57;;;-1.00;99.90;;;;;;5098046;28;20082;-68
2024/01/28 07:10:11;;;;;;;0.15;0.15;;;-1.00;99.90;;;;;;5093421;28;20072;-68
2024/01/28 07:12:39;;;;;;;0.00;0.00;;;-1.10;99.90;;;;;;5113148;28;20090;-68
2024/01/28 07:15:05;;;;;;;0.17;0.17;;;-1.00;99.90;;;;;;5111159;27;20074;-68
2024/01/28 07:17:31;;;;;;;0.15;0.15;;;-1.00;99.90;;;;;;5093900;27;20079;-68
2024/01/28 07:19:57;;;;;;;0.10;0.10;;;-1.10;99.90;;;;;;5112564;27;20090;-68
2024/01/28 07:22:22;;;;;;;0.10;0.10;;;-1.10;99.90;;;;;;5084527;28;20035;-68
2024/01/28 07:24:48;;;;;;;0.15;0.15;;;-1.10;99.90;;;;;;5119154;27;20059;-68
2024/01/28 07:27:14;;;;;;;0.30;0.20;;;-1.10;99.90;;;;;;5096890;27;20059;-68
2024/01/28 07:29:40;;;;;;;0.22;0.22;;;-1.10;99.90;;;;;;5096477;27;20042;-68
2024/01/28 07:32:05;;;;;;;0.43;0.25;;;-1.10;99.90;;;;;;5075502;27;20557;-68
2024/01/28 07:34:31;;;;;;;0.10;0.10;;;-1.10;99.90;;;;;;5104810;27;20069;-68
2024/01/28 07:36:58;;;;;;;0.20;0.20;;;-1.10;99.90;;;;;;5092693;27;20512;-68
2024/01/28 07:39:25;;;;;;;0.10;0.10;;;-1.10;99.90;;;;;;5113491;27;20093;-68
2024/01/28 07:41:51;;;;;;;0.50;0.50;;;-1.10;99.90;;;;;;5118010;27;20504;-68
2024/01/28 07:44:17;;;;;;;0.10;0.10;;;-1.10;99.90;;;;;;5092053;27;20027;-68
2024/01/28 07:46:43;;;;;;;0.22;0.22;;;-1.10;99.90;;;;;;5112102;27;21350;-65
2024/01/28 07:49:09;;;;;;;0.43;0.40;;;-1.10;99.90;;;;;;5091159;28;20040;-75
2024/01/28 07:51:34;;;;;;;0.10;0.10;;;-1.00;99.90;;;;;;5112355;27;20444;-75
2024/01/28 07:54:00;;;;;;;0.10;0.10;;;-1.00;99.90;;;;;;5094512;28;20459;-67
2024/01/28 07:56:26;;;;;;;0.10;0.10;;;-0.90;99.90;;;;;;5111169;27;20063;-69
2024/01/28 07:58:52;;;;;;;0.45;0.45;;;-0.90;99.90;;;;;;5104818;27;20040;-69
2024/01/28 08:01:17;;;;;;;0.10;0.10;;;-0.80;99.90;;;;;;5075986;28;20108;-69
2024/01/28 08:03:43;;;;;;;0.70;0.63;;;-0.80;99.90;;;;;;5100257;27;20671;-69
2024/01/28 08:06:09;;;;;;;0.10;0.10;;;-0.80;99.90;;;;;;5074164;28;20494;-69
2024/01/28 08:08:35;;;;;;;0.10;0.10;;;-0.70;99.90;;;;;;5101580;28;20153;-69
2024/01/28 08:11:01;;;;;;;0.63;0.52;;;-0.70;99.90;;;;;;5080774;28;20040;-69
2024/01/28 08:13:26;;;;;;;0.32;0.32;;;-0.60;99.90;;;;;;5089154;28;20051;-69
2024/01/28 08:15:54;;;;;;;0.50;0.50;;;-0.60;99.90;;;;;;5094915;28;20043;-69
2024/01/28 08:18:20;;;;;;;0.20;0.20;;;-0.60;99.90;;;;;;5106448;28;20040;-69
2024/01/28 08:20:46;;;;;;;1.02;0.25;;;-0.50;99.90;;;;;;5076913;28;20073;-69
2024/01/28 08:23:11;;;;;;;1.30;0.32;;;-0.50;99.90;;;;;;5104940;28;20032;-69
2024/01/28 08:25:37;;;;;;;0.95;0.30;;;-0.40;99.90;;;;;;5092088;28;20501;-69
2024/01/28 08:28:03;;;;;;;0.10;0.10;;;-0.40;99.90;;;;;;5089316;28;20172;-69
2024/01/28 08:30:28;;;;;;;0.20;0.20;;;-0.40;99.90;;;;;;5094861;28;20043;-69
2024/01/28 08:32:54;;;;;;;0.55;0.30;;;-0.30;99.90;;;;;;5112927;28;20050;-69
2024/01/28 08:35:21;;;;;;;0.17;0.17;;;-0.20;99.90;;;;;;5091505;28;20043;-69
2024/01/28 08:37:47;;;;;;;0.10;0.10;;;-0.20;99.90;;;;;;5110658;28;20050;-69
2024/01/28 08:40:14;;;;;;;0.35;0.35;;;-0.10;99.90;;;;;;5111730;28;20052;-69
2024/01/28 08:42:40;;;;;;;1.45;0.68;;;-0.10;99.90;;;;;;5092439;28;20031;-69
2024/01/28 08:45:06;;;;;;;0.10;0.10;;;0.00;99.90;;;;;;5074026;28;20040;-69
2024/01/28 08:47:31;;;;;;;0.82;0.60;;;0.10;99.90;;;;;;5094101;28;20531;-75
2024/01/28 08:49:57;;;;;;;0.10;0.10;;;0.10;99.90;;;;;;5092812;28;20062;-75
2024/01/28 08:52:23;;;;;;;0.98;0.60;;;0.20;99.90;;;;;;5098093;27;20138;-77
2024/01/28 08:54:49;;;;;;;0.10;0.10;;;0.30;99.90;;;;;;5070299;27;20040;-76
2024/01/28 08:57:14;;;;;;;0.10;0.10;;;0.40;99.90;;;;;;5094723;27;20041;-78
2024/01/28 08:59:40;;;;;;;2.25;0.50;;;0.50;99.90;;;;;;5107168;27;20482;-77
2024/01/28 09:02:05;;;;;;;0.05;0.05;;;0.60;99.90;;;;;;5115082;27;20032;-78
2024/01/28 09:04:31;;;;;;;0.10;0.10;;;0.60;99.90;;;;;;5075678;27;20076;-78
2024/01/28 09:06:57;;;;;;;1.55;0.38;;;0.70;99.90;;;;;;5094267;28;20035;-80
2024/01/28 09:09:22;;;;;;;0.63;0.50;;;0.80;99.90;;;;;;5092694;28;20071;-80
2024/01/28 09:11:48;;;;;;;0.10;0.10;;;0.90;99.90;;;;;;5096748;28;20093;-81
2024/01/28 09:14:13;;;;;;;0.10;0.10;;;1.00;99.90;;;;;;5094865;27;20499;-80
2024/01/28 09:16:39;;;;;;;0.10;0.10;;;1.00;99.90;;;;;;5099247;27;20503;-80
2024/01/28 09:19:05;;;;;;;0.30;0.30;;;1.10;99.90;;;;;;5113275;27;20486;-81
2024/01/28 09:21:31;;;;;;;0.10;0.10;;;1.20;99.90;;;;;;5091142;27;20036;-80
2024/01/28 09:23:57;;;;;;;0.43;0.28;;;1.30;99.90;;;;;;5092128;27;20043;-81
2024/01/28 09:26:23;;;;;;;0.50;0.50;;;1.40;99.90;;;;;;5114624;27;20028;-80
2024/01/28 09:28:48;;;;;;;0.22;0.22;;;1.40;99.90;;;;;;5107949;27;20032;-80
2024/01/28 09:31:14;;;;;;;0.10;0.10;;;1.50;99.90;;;;;;5089377;27;20054;-79
2024/01/28 09:33:39;;;;;;;0.32;0.32;;;1.60;99.90;;;;;;5110522;27;20333;-79
2024/01/28 09:36:05;;;;;;;0.10;0.10;;;1.70;99.90;;;;;;5093623;28;20122;-80
2024/01/28 09:38:31;;;;;;;0.38;0.38;;;1.80;99.90;;;;;;5091490;28;20405;-80
2024/01/28 09:41:04;;;;;;;0.32;0.28;;;1.90;99.90;;;;;;5086903;28;20036;-80
2024/01/28 09:43:30;;;;;;;0.00;0.00;;;2.00;99.90;;;;;;5090910;27;20112;-79
2024/01/28 09:45:56;;;;;;;0.17;0.17;;;2.10;99.90;;;;;;5095714;28;20437;-80
2024/01/28 09:48:22;;;;;;;0.32;0.32;;;2.10;99.90;;;;;;5102757;27;20084;-79
2024/01/28 09:50:48;;;;;;;0.10;0.10;;;2.20;99.90;;;;;;5075326;27;20039;-78
2024/01/28 09:53:14;;;;;;;0.32;0.32;;;2.30;99.90;;;;;;5075465;27;20062;-78
2024/01/28 09:55:40;;;;;;;0.20;0.20;;;2.40;99.90;;;;;;5096138;27;20131;-79
2024/01/28 09:58:07;;;;;;;0.10;0.10;;;2.40;99.90;;;;;;5103340;27;20122;-79
2024/01/28 10:00:33;;;;;;;0.25;0.25;;;2.50;99.90;;;;;;5088661;28;20379;-80
2024/01/28 10:02:58;;;;;;;0.40;0.40;;;2.60;99.90;;;;;;5112499;27;20111;-78
2024/01/28 10:05:24;;;;;;;0.10;0.10;;;2.60;99.90;;;;;;5075259;28;20039;-78
2024/01/28 10:08:02;;;;;;;0.10;0.10;;;2.70;99.90;;;;;;5093366;28;20027;-79
2024/01/28 10:10:28;;;;;;;0.10;0.10;;;2.80;99.90;;;;;;5103593;27;20056;-78
2024/01/28 10:12:55;;;;;;;0.05;0.05;;;2.80;99.90;;;;;;5095916;28;20043;-79
2024/01/28 10:15:21;;;;;;;0.05;0.05;;;2.90;99.90;;;;;;5088609;28;20035;-79
2024/01/28 10:17:48;;;;;;;0.20;0.20;;;3.00;99.90;;;;;;5099489;28;20206;-79
2024/01/28 10:20:15;;;;;;;0.10;0.10;;;3.10;99.90;;;;;;5106427;28;20062;-79
2024/01/28 10:22:41;;;;;;;0.30;0.30;;;3.20;99.90;;;;;;5111579;28;20555;-80
2024/01/28 10:25:11;;;;;;;2.65;0.90;;;3.30;99.90;;;;;;5107125;27;20035;-80
2024/01/28 10:27:36;;;;;;;0.40;0.40;;;3.40;99.90;;;;;;5095704;27;20059;-76
2024/01/28 10:30:06;;;;;;;0.20;0.20;;;3.50;99.90;;;;;;5095783;28;20058;-76
2024/01/28 10:32:32;;;;;;;0.20;0.20;;;3.60;99.90;;;;;;5109965;27;20045;-78
2024/01/28 10:34:58;;;;;;;0.68;0.52;;;3.70;99.90;;;;;;5104738;27;20035;-78
2024/01/28 10:37:27;;;;;;;0.35;0.35;;;3.80;99.90;;;;;;5093993;28;20035;-77
2024/01/28 10:39:56;;;;;;;0.10;0.10;;;3.90;99.90;;;;;;5111960;28;20071;-76
2024/01/28 10:42:25;;;;;;;0.25;0.25;;;3.90;99.90;;;;;;5097667;28;20130;-76
2024/01/28 10:44:53;;;;;;;0.00;0.00;;;4.10;99.90;;;;;;5086365;28;20054;-76
2024/01/28 10:47:23;;;;;;;0.13;0.13;;;4.20;99.90;;;;;;5091545;27;20035;-76
2024/01/28 10:49:52;;;;;;;2.38;0.20;;;4.30;99.90;;;;;;5092164;28;20040;-77
2024/01/28 10:52:19;;;;;;;0.22;0.22;;;4.40;99.90;;;;;;5096318;27;20039;-77
2024/01/28 10:54:47;;;;;;;0.30;0.30;;;4.50;99.90;;;;;;5091284;28;20065;-75
2024/01/28 10:57:13;;;;;;;1.10;0.85;;;4.50;99.90;;;;;;5094010;27;20040;-75
2024/01/28 10:59:42;;;;;;;0.60;0.60;;;4.70;99.90;;;;;;5109248;27;20061;-77
2024/01/28 11:02:09;;;;;;;0.10;0.10;;;4.70;99.90;;;;;;5089168;28;20651;-77
2024/01/28 11:04:35;;;;;;;0.20;0.20;;;4.70;99.90;;;;;;5091416;28;20085;-77
2024/01/28 11:07:02;;;;;;;1.00;1.00;;;4.80;99.90;;;;;;5079858;27;20040;-75
2024/01/28 11:09:28;;;;;;;0.15;0.15;;;4.80;99.90;;;;;;5094637;28;20126;-76
2024/01/28 11:11:54;;;;;;;0.52;0.50;;;4.80;99.90;;;;;;5093969;28;20130;-77
2024/01/28 11:14:19;;;;;;;0.10;0.10;;;4.90;99.90;;;;;;5113410;27;20125;-77
2024/01/28 11:16:46;;;;;;;1.15;0.70;;;4.90;99.90;;;;;;5093231;28;20501;-76
2024/01/28 11:19:14;;;;;;;0.10;0.10;;;4.90;99.90;;;;;;5083942;28;20121;-76
2024/01/28 11:21:41;;;;;;;0.30;0.30;;;4.90;99.90;;;;;;5117696;27;20034;-76
2024/01/28 11:24:11;;;;;;;4.40;0.40;;;5.00;99.90;;;;;;5093587;28;20039;-76
2024/01/28 11:26:37;;;;;;;0.10;0.10;;;5.00;99.90;;;;;;5090721;28;20130;-74
2024/01/28 11:29:07;;;;;;;0.10;0.10;;;5.00;99.90;;;;;;5105475;27;20039;-74
2024/01/28 11:31:34;;;;;;;0.00;0.00;;;5.00;99.90;;;;;;5086505;27;20085;-75
2024/01/28 11:34:19;;;;;;;0.20;0.20;;;5.10;99.90;;;;;;5090239;27;20032;-76
2024/01/28 11:36:47;;;;;;;0.10;0.10;;;5.10;99.90;;;;;;5095942;27;20394;-75
2024/01/28 11:39:15;;;;;;;0.00;0.00;;;5.20;99.90;;;;;;5091558;27;20032;-74
2024/01/28 11:41:42;;;;;;;0.43;0.13;;;5.40;99.90;;;;;;5092423;27;20039;-75
2024/01/28 11:44:08;;;;;;;0.08;0.08;;;5.40;99.90;;;;;;5090361;27;20479;-74
2024/01/28 11:46:38;;;;;;;0.10;0.10;;;5.50;99.90;;;;;;5112531;27;20110;-75
2024/01/28 11:49:05;;;;;;;2.53;0.40;;;5.60;99.90;;;;;;5098151;28;20386;-74
2024/01/28 11:51:32;;;;;;;0.10;0.10;;;5.70;99.90;;;;;;5096754;27;20129;-75
2024/01/28 11:54:00;;;;;;;0.75;0.68;;;5.70;99.90;;;;;;5103117;27;20093;-75
2024/01/28 11:56:27;;;;;;;2.33;1.10;;;5.80;99.90;;;;;;5095683;27;20178;-74
2024/01/28 11:58:53;;;;;;;0.45;0.45;;;5.80;99.90;;;;;;5105990;27;20069;-74
2024/01/28 12:01:18;;;;;;;0.20;0.20;;;5.90;99.90;;;;;;5112991;27;20044;-75
2024/01/28 12:03:44;;;;;;;0.17;0.15;;;6.00;99.90;;;;;;5090076;27;20043;-76
2024/01/28 12:06:10;;;;;;;0.22;0.20;;;6.00;99.90;;;;;;5092097;27;20040;-74
2024/01/28 12:08:43;;;;;;;0.20;0.20;;;6.10;99.90;;;;;;5092775;28;20036;-74
2024/01/28 12:11:14;;;;;;;0.10;0.10;;;6.10;99.90;;;;;;5106992;27;20039;-75
2024/01/28 12:13:41;;;;;;;0.28;0.28;;;6.20;99.90;;;;;;5090124;28;20040;-75
2024/01/28 12:16:07;;;;;;;0.25;0.20;;;6.30;99.90;;;;;;5108195;27;20043;-74
2024/01/28 12:18:36;;;;;;;0.10;0.10;;;6.30;99.90;;;;;;5109138;27;20040;-74
2024/01/28 12:21:01;;;;;;;0.10;0.10;;;6.30;99.90;;;;;;5107842;27;20047;-74
2024/01/28 12:23:30;;;;;;;0.20;0.20;;;6.40;99.90;;;;;;5115817;27;20110;-73
2024/01/28 12:25:56;;;;;;;0.20;0.17;;;6.40;99.90;;;;;;5108221;27;20405;-73
2024/01/28 12:28:22;;;;;;;3.53;0.20;;;6.50;99.90;;;;;;5098873;27;20047;-74
2024/01/28 12:30:48;;;;;;;0.10;0.10;;;6.50;99.90;;;;;;5093206;27;20031;-74
2024/01/28 12:33:16;;;;;;;0.10;0.10;;;6.60;99.90;;;;;;5091335;28;20204;-74
2024/01/28 12:35:42;;;;;;;0.90;0.47;;;6.60;99.90;;;;;;5087594;28;20054;-73
2024/01/28 12:38:07;;;;;;;0.10;0.10;;;6.60;99.90;;;;;;5103067;27;20043;-73
2024/01/28 12:40:33;;;;;;;0.00;0.00;;;6.60;99.90;;;;;;5090212;28;20126;-73
2024/01/28 12:42:58;;;;;;;0.10;0.10;;;6.60;99.90;;;;;;5110583;27;20123;-72
2024/01/28 12:45:24;;;;;;;0.10;0.10;;;6.70;99.90;;;;;;5089597;28;20115;-72
2024/01/28 12:47:49;;;;;;;0.00;0.00;;;6.70;99.90;;;;;;5101651;27;20091;-72